sensor_id;sensor_type;location;lat;lon;timestamp;temperature;humidity
25945;SHT31;13742;49.306;8.636;2024-01-15T00:00:44;-1.94;81.18
25945;SHT31;13742;49.306;8.636;2024-01-15T00:01:44;-1.94;81.15
25945;SHT31;13742;49.306;8.636;2024-01-15T00:02:43;-1.93;81.30
25945;SHT31;13742;49.306;8.636;2024-01-15T00:03:43;-1.90;81.20
25945;SHT31;13742;49.306;8.636;2024-01-15T00:04:43;-1.90;81.12
25945;SHT31;13742;49.306;8.636;2024-01-15T00:05:44;-1.91;81.08
25945;SHT31;13742;49.306;8.636;2024-01-15T00:06:43;-1.91;81.23
25945;SHT31;13742;49.306;8.636;2024-01-15T00:07:43;-1.89;81.18
25945;SHT31;13742;49.306;8.636;2024-01-15T00:08:44;-1.91;81.10
25945;SHT31;13742;49.306;8.636;2024-01-15T00:09:43;-1.89;81.08
25945;SHT31;13742;49.306;8.636;2024-01-15T00:10:43;-1.90;81.09
25945;SHT31;13742;49.306;8.636;2024-01-15T00:11:44;-1.89;81.09
25945;SHT31;13742;49.306;8.636;2024-01-15T00:12:43;-1.90;81.20
25945;SHT31;13742;49.306;8.636;2024-01-15T00:13:44;-1.90;81.32
25945;SHT31;13742;49.306;8.636;2024-01-15T00:14:43;-1.90;81.24
25945;SHT31;13742;49.306;8.636;2024-01-15T00:15:43;-1.89;81.34
25945;SHT31;13742;49.306;8.636;2024-01-15T00:16:43;-1.87;81.34
25945;SHT31;13742;49.306;8.636;2024-01-15T00:17:43;-1.90;81.28
25945;SHT31;13742;49.306;8.636;2024-01-15T00:18:43;-1.89;81.19
25945;SHT31;13742;49.306;8.636;2024-01-15T00:19:43;-1.90;81.21
25945;SHT31;13742;49.306;8.636;2024-01-15T00:20:43;-1.89;81.28
25945;SHT31;13742;49.306;8.636;2024-01-15T00:21:44;-1.87;81.24
25945;SHT31;13742;49.306;8.636;2024-01-15T00:22:43;-1.87;81.40
25945;SHT31;13742;49.306;8.636;2024-01-15T00:23:46;-1.89;81.43
25945;SHT31;13742;49.306;8.636;2024-01-15T00:24:43;-1.90;81.32
25945;SHT31;13742;49.306;8.636;2024-01-15T00:25:43;-1.89;81.50
25945;SHT31;13742;49.306;8.636;2024-01-15T00:26:43;-1.86;81.46
25945;SHT31;13742;49.306;8.636;2024-01-15T00:27:43;-1.87;81.33
25945;SHT31;13742;49.306;8.636;2024-01-15T00:28:43;-1.86;81.36
25945;SHT31;13742;49.306;8.636;2024-01-15T00:29:43;-1.86;81.45
25945;SHT31;13742;49.306;8.636;2024-01-15T00:30:43;-1.86;81.38
25945;SHT31;13742;49.306;8.636;2024-01-15T00:31:43;-1.87;81.39
25945;SHT31;13742;49.306;8.636;2024-01-15T00:32:43;-1.87;81.37
25945;SHT31;13742;49.306;8.636;2024-01-15T00:33:44;-1.89;81.39
25945;SHT31;13742;49.306;8.636;2024-01-15T00:34:43;-1.89;81.39
25945;SHT31;13742;49.306;8.636;2024-01-15T00:35:43;-1.89;81.46
25945;SHT31;13742;49.306;8.636;2024-01-15T00:36:43;-1.87;81.44
25945;SHT31;13742;49.306;8.636;2024-01-15T00:37:43;-1.87;81.46
25945;SHT31;13742;49.306;8.636;2024-01-15T00:38:44;-1.89;81.57
25945;SHT31;13742;49.306;8.636;2024-01-15T00:39:43;-1.87;81.63
25945;SHT31;13742;49.306;8.636;2024-01-15T00:40:43;-1.89;81.66
25945;SHT31;13742;49.306;8.636;2024-01-15T00:41:43;-1.89;81.65
25945;SHT31;13742;49.306;8.636;2024-01-15T00:42:43;-1.89;81.66
25945;SHT31;13742;49.306;8.636;2024-01-15T00:43:44;-1.87;81.64
25945;SHT31;13742;49.306;8.636;2024-01-15T00:44:43;-1.87;81.58
25945;SHT31;13742;49.306;8.636;2024-01-15T00:45:43;-1.86;81.66
25945;SHT31;13742;49.306;8.636;2024-01-15T00:46:45;-1.86;81.63
25945;SHT31;13742;49.306;8.636;2024-01-15T00:47:44;-1.82;81.58
25945;SHT31;13742;49.306;8.636;2024-01-15T00:48:43;-1.83;81.47
25945;SHT31;13742;49.306;8.636;2024-01-15T00:49:43;-1.83;81.59
25945;SHT31;13742;49.306;8.636;2024-01-15T00:50:43;-1.84;81.69
25945;SHT31;13742;49.306;8.636;2024-01-15T00:51:43;-1.86;81.68
25945;SHT31;13742;49.306;8.636;2024-01-15T00:52:43;-1.83;81.60
25945;SHT31;13742;49.306;8.636;2024-01-15T00:53:43;-1.82;81.53
25945;SHT31;13742;49.306;8.636;2024-01-15T00:54:43;-1.83;81.52
25945;SHT31;13742;49.306;8.636;2024-01-15T00:55:43;-1.83;81.44
25945;SHT31;13742;49.306;8.636;2024-01-15T00:56:43;-1.83;81.58
25945;SHT31;13742;49.306;8.636;2024-01-15T00:57:43;-1.82;81.45
25945;SHT31;13742;49.306;8.636;2024-01-15T00:58:43;-1.82;81.45
25945;SHT31;13742;49.306;8.636;2024-01-15T00:59:43;-1.79;81.52
25945;SHT31;13742;49.306;8.636;2024-01-15T01:00:43;-1.80;81.58
25945;SHT31;13742;49.306;8.636;2024-01-15T01:01:44;-1.82;81.57
25945;SHT31;13742;49.306;8.636;2024-01-15T01:02:43;-1.80;81.56
25945;SHT31;13742;49.306;8.636;2024-01-15T01:03:43;-1.82;81.64
25945;SHT31;13742;49.306;8.636;2024-01-15T01:04:43;-1.80;81.68
25945;SHT31;13742;49.306;8.636;2024-01-15T01:05:44;-1.80;81.62
25945;SHT31;13742;49.306;8.636;2024-01-15T01:06:43;-1.83;81.70
25945;SHT31;13742;49.306;8.636;2024-01-15T01:07:43;-1.80;81.73
25945;SHT31;13742;49.306;8.636;2024-01-15T01:08:43;-1.78;81.70
25945;SHT31;13742;49.306;8.636;2024-01-15T01:09:44;-1.78;81.72
25945;SHT31;13742;49.306;8.636;2024-01-15T01:10:43;-1.80;81.68
25945;SHT31;13742;49.306;8.636;2024-01-15T01:11:43;-1.78;81.72
25945;SHT31;13742;49.306;8.636;2024-01-15T01:12:43;-1.78;81.74
25945;SHT31;13742;49.306;8.636;2024-01-15T01:13:43;-1.78;81.86
25945;SHT31;13742;49.306;8.636;2024-01-15T01:14:43;-1.76;81.92
25945;SHT31;13742;49.306;8.636;2024-01-15T01:15:43;-1.78;81.94
25945;SHT31;13742;49.306;8.636;2024-01-15T01:16:43;-1.78;81.98
25945;SHT31;13742;49.306;8.636;2024-01-15T01:17:43;-1.78;81.99
25945;SHT31;13742;49.306;8.636;2024-01-15T01:18:43;-1.75;82.02
25945;SHT31;13742;49.306;8.636;2024-01-15T01:19:43;-1.76;81.94
25945;SHT31;13742;49.306;8.636;2024-01-15T01:20:43;-1.76;82.03
25945;SHT31;13742;49.306;8.636;2024-01-15T01:21:43;-1.76;81.95
25945;SHT31;13742;49.306;8.636;2024-01-15T01:22:43;-1.73;82.09
25945;SHT31;13742;49.306;8.636;2024-01-15T01:23:43;-1.75;82.07
25945;SHT31;13742;49.306;8.636;2024-01-15T01:24:43;-1.78;82.22
25945;SHT31;13742;49.306;8.636;2024-01-15T01:25:43;-1.75;82.08
25945;SHT31;13742;49.306;8.636;2024-01-15T01:26:46;-1.75;82.15
25945;SHT31;13742;49.306;8.636;2024-01-15T01:27:43;-1.73;82.17
25945;SHT31;13742;49.306;8.636;2024-01-15T01:28:43;-1.72;82.08
25945;SHT31;13742;49.306;8.636;2024-01-15T01:29:43;-1.73;82.14
25945;SHT31;13742;49.306;8.636;2024-01-15T01:30:44;-1.72;82.09
25945;SHT31;13742;49.306;8.636;2024-01-15T01:31:44;-1.72;82.05
25945;SHT31;13742;49.306;8.636;2024-01-15T01:32:43;-1.72;82.04
25945;SHT31;13742;49.306;8.636;2024-01-15T01:33:43;-1.70;81.99
25945;SHT31;13742;49.306;8.636;2024-01-15T01:34:43;-1.70;82.01
25945;SHT31;13742;49.306;8.636;2024-01-15T01:35:45;-1.69;81.99
25945;SHT31;13742;49.306;8.636;2024-01-15T01:36:43;-1.69;82.16
25945;SHT31;13742;49.306;8.636;2024-01-15T01:37:43;-1.69;82.21
25945;SHT31;13742;49.306;8.636;2024-01-15T01:38:43;-1.68;82.21
25945;SHT31;13742;49.306;8.636;2024-01-15T01:39:44;-1.68;82.27
25945;SHT31;13742;49.306;8.636;2024-01-15T01:40:43;-1.66;82.27
25945;SHT31;13742;49.306;8.636;2024-01-15T01:41:43;-1.68;82.23
25945;SHT31;13742;49.306;8.636;2024-01-15T01:42:43;-1.68;82.29
25945;SHT31;13742;49.306;8.636;2024-01-15T01:43:43;-1.65;82.26
25945;SHT31;13742;49.306;8.636;2024-01-15T01:44:43;-1.68;82.17
25945;SHT31;13742;49.306;8.636;2024-01-15T01:45:43;-1.65;82.10
25945;SHT31;13742;49.306;8.636;2024-01-15T01:46:43;-1.66;82.24
25945;SHT31;13742;49.306;8.636;2024-01-15T01:47:43;-1.66;82.24
25945;SHT31;13742;49.306;8.636;2024-01-15T01:48:43;-1.66;82.26
25945;SHT31;13742;49.306;8.636;2024-01-15T01:49:44;-1.63;82.35
25945;SHT31;13742;49.306;8.636;2024-01-15T01:50:44;-1.62;82.23
25945;SHT31;13742;49.306;8.636;2024-01-15T01:51:44;-1.63;82.25
25945;SHT31;13742;49.306;8.636;2024-01-15T01:52:43;-1.65;82.25
25945;SHT31;13742;49.306;8.636;2024-01-15T01:53:44;-1.63;82.22
25945;SHT31;13742;49.306;8.636;2024-01-15T01:54:43;-1.63;82.13
25945;SHT31;13742;49.306;8.636;2024-01-15T01:55:43;-1.65;82.05
25945;SHT31;13742;49.306;8.636;2024-01-15T01:56:43;-1.63;82.15
25945;SHT31;13742;49.306;8.636;2024-01-15T01:57:44;-1.65;82.12
25945;SHT31;13742;49.306;8.636;2024-01-15T01:58:44;-1.66;82.14
25945;SHT31;13742;49.306;8.636;2024-01-15T01:59:44;-1.66;82.01
25945;SHT31;13742;49.306;8.636;2024-01-15T02:00:43;-1.66;81.94
25945;SHT31;13742;49.306;8.636;2024-01-15T02:01:44;-1.63;81.93
25945;SHT31;13742;49.306;8.636;2024-01-15T02:02:43;-1.68;81.93
25945;SHT31;13742;49.306;8.636;2024-01-15T02:03:43;-1.63;82.03
25945;SHT31;13742;49.306;8.636;2024-01-15T02:04:44;-1.63;81.90
25945;SHT31;13742;49.306;8.636;2024-01-15T02:05:45;-1.66;81.98
25945;SHT31;13742;49.306;8.636;2024-01-15T02:06:43;-1.63;82.04
25945;SHT31;13742;49.306;8.636;2024-01-15T02:07:43;-1.66;82.05
25945;SHT31;13742;49.306;8.636;2024-01-15T02:08:43;-1.66;82.19
25945;SHT31;13742;49.306;8.636;2024-01-15T02:09:44;-1.65;82.21
25945;SHT31;13742;49.306;8.636;2024-01-15T02:10:43;-1.68;82.11
25945;SHT31;13742;49.306;8.636;2024-01-15T02:11:46;-1.68;82.15
25945;SHT31;13742;49.306;8.636;2024-01-15T02:12:44;-1.66;82.10
25945;SHT31;13742;49.306;8.636;2024-01-15T02:13:43;-1.62;82.00
25945;SHT31;13742;49.306;8.636;2024-01-15T02:14:43;-1.65;82.01
25945;SHT31;13742;49.306;8.636;2024-01-15T02:15:43;-1.65;82.03
25945;SHT31;13742;49.306;8.636;2024-01-15T02:16:43;-1.65;82.01
25945;SHT31;13742;49.306;8.636;2024-01-15T02:18:45;-1.62;82.19
25945;SHT31;13742;49.306;8.636;2024-01-15T02:19:43;-1.63;82.12
25945;SHT31;13742;49.306;8.636;2024-01-15T02:20:44;-1.66;81.97
25945;SHT31;13742;49.306;8.636;2024-01-15T02:21:44;-1.65;82.07
25945;SHT31;13742;49.306;8.636;2024-01-15T02:22:43;-1.63;82.15
25945;SHT31;13742;49.306;8.636;2024-01-15T02:23:43;-1.65;82.10
25945;SHT31;13742;49.306;8.636;2024-01-15T02:24:43;-1.65;82.18
25945;SHT31;13742;49.306;8.636;2024-01-15T02:25:46;-1.66;82.24
25945;SHT31;13742;49.306;8.636;2024-01-15T02:26:43;-1.65;82.26
25945;SHT31;13742;49.306;8.636;2024-01-15T02:27:44;-1.63;82.31
25945;SHT31;13742;49.306;8.636;2024-01-15T02:28:44;-1.66;82.13
25945;SHT31;13742;49.306;8.636;2024-01-15T02:29:43;-1.68;82.24
25945;SHT31;13742;49.306;8.636;2024-01-15T02:30:44;-1.66;82.19
25945;SHT31;13742;49.306;8.636;2024-01-15T02:31:43;-1.63;82.18
25945;SHT31;13742;49.306;8.636;2024-01-15T02:32:43;-1.65;82.32
25945;SHT31;13742;49.306;8.636;2024-01-15T02:33:44;-1.68;82.31
25945;SHT31;13742;49.306;8.636;2024-01-15T02:34:43;-1.68;82.24
25945;SHT31;13742;49.306;8.636;2024-01-15T02:35:43;-1.66;82.28
25945;SHT31;13742;49.306;8.636;2024-01-15T02:36:43;-1.63;82.34
25945;SHT31;13742;49.306;8.636;2024-01-15T02:37:43;-1.68;82.26
25945;SHT31;13742;49.306;8.636;2024-01-15T02:38:43;-1.65;82.20
25945;SHT31;13742;49.306;8.636;2024-01-15T02:39:43;-1.63;82.25
25945;SHT31;13742;49.306;8.636;2024-01-15T02:40:44;-1.63;82.29
25945;SHT31;13742;49.306;8.636;2024-01-15T02:41:43;-1.65;82.24
25945;SHT31;13742;49.306;8.636;2024-01-15T02:42:43;-1.63;82.32
25945;SHT31;13742;49.306;8.636;2024-01-15T02:43:44;-1.63;82.36
25945;SHT31;13742;49.306;8.636;2024-01-15T02:44:43;-1.63;82.22
25945;SHT31;13742;49.306;8.636;2024-01-15T02:45:43;-1.63;82.01
25945;SHT31;13742;49.306;8.636;2024-01-15T02:46:43;-1.62;82.01
25945;SHT31;13742;49.306;8.636;2024-01-15T02:47:43;-1.62;82.02
25945;SHT31;13742;49.306;8.636;2024-01-15T02:48:43;-1.65;82.04
25945;SHT31;13742;49.306;8.636;2024-01-15T02:49:43;-1.62;82.03
25945;SHT31;13742;49.306;8.636;2024-01-15T02:50:43;-1.63;82.15
25945;SHT31;13742;49.306;8.636;2024-01-15T02:51:43;-1.65;82.20
25945;SHT31;13742;49.306;8.636;2024-01-15T02:52:43;-1.62;82.17
25945;SHT31;13742;49.306;8.636;2024-01-15T02:53:43;-1.63;82.13
25945;SHT31;13742;49.306;8.636;2024-01-15T02:54:43;-1.63;82.06
25945;SHT31;13742;49.306;8.636;2024-01-15T02:55:43;-1.63;82.09
25945;SHT31;13742;49.306;8.636;2024-01-15T02:56:43;-1.66;82.20
25945;SHT31;13742;49.306;8.636;2024-01-15T02:57:44;-1.65;82.26
25945;SHT31;13742;49.306;8.636;2024-01-15T02:58:43;-1.68;82.15
25945;SHT31;13742;49.306;8.636;2024-01-15T02:59:43;-1.68;82.06
25945;SHT31;13742;49.306;8.636;2024-01-15T03:00:43;-1.63;81.99
25945;SHT31;13742;49.306;8.636;2024-01-15T03:01:43;-1.63;82.08
25945;SHT31;13742;49.306;8.636;2024-01-15T03:02:44;-1.65;82.11
25945;SHT31;13742;49.306;8.636;2024-01-15T03:03:43;-1.66;82.05
25945;SHT31;13742;49.306;8.636;2024-01-15T03:04:44;-1.63;82.08
25945;SHT31;13742;49.306;8.636;2024-01-15T03:05:43;-1.63;82.05
25945;SHT31;13742;49.306;8.636;2024-01-15T03:06:43;-1.68;82.11
25945;SHT31;13742;49.306;8.636;2024-01-15T03:07:43;-1.65;82.28
25945;SHT31;13742;49.306;8.636;2024-01-15T03:08:43;-1.66;82.23
25945;SHT31;13742;49.306;8.636;2024-01-15T03:09:44;-1.68;82.17
25945;SHT31;13742;49.306;8.636;2024-01-15T03:10:43;-1.63;82.21
25945;SHT31;13742;49.306;8.636;2024-01-15T03:11:43;-1.68;82.18
25945;SHT31;13742;49.306;8.636;2024-01-15T03:12:43;-1.66;82.29
25945;SHT31;13742;49.306;8.636;2024-01-15T03:13:43;-1.68;82.28
25945;SHT31;13742;49.306;8.636;2024-01-15T03:14:43;-1.66;82.29
25945;SHT31;13742;49.306;8.636;2024-01-15T03:15:43;-1.68;82.25
25945;SHT31;13742;49.306;8.636;2024-01-15T03:16:43;-1.65;82.25
25945;SHT31;13742;49.306;8.636;2024-01-15T03:17:44;-1.66;82.22
25945;SHT31;13742;49.306;8.636;2024-01-15T03:18:43;-1.68;82.28
25945;SHT31;13742;49.306;8.636;2024-01-15T03:19:43;-1.66;82.27
25945;SHT31;13742;49.306;8.636;2024-01-15T03:20:43;-1.65;82.30
25945;SHT31;13742;49.306;8.636;2024-01-15T03:21:43;-1.66;82.23
25945;SHT31;13742;49.306;8.636;2024-01-15T03:22:43;-1.66;82.20
25945;SHT31;13742;49.306;8.636;2024-01-15T03:23:43;-1.65;82.18
25945;SHT31;13742;49.306;8.636;2024-01-15T03:24:44;-1.63;82.29
25945;SHT31;13742;49.306;8.636;2024-01-15T03:25:44;-1.62;82.30
25945;SHT31;13742;49.306;8.636;2024-01-15T03:26:43;-1.62;82.42
25945;SHT31;13742;49.306;8.636;2024-01-15T03:27:43;-1.63;82.32
25945;SHT31;13742;49.306;8.636;2024-01-15T03:28:43;-1.61;82.33
25945;SHT31;13742;49.306;8.636;2024-01-15T03:29:43;-1.59;82.22
25945;SHT31;13742;49.306;8.636;2024-01-15T03:30:43;-1.59;82.22
25945;SHT31;13742;49.306;8.636;2024-01-15T03:31:43;-1.62;82.19
25945;SHT31;13742;49.306;8.636;2024-01-15T03:32:43;-1.58;82.27
25945;SHT31;13742;49.306;8.636;2024-01-15T03:33:43;-1.59;82.22
25945;SHT31;13742;49.306;8.636;2024-01-15T03:34:43;-1.59;82.24
25945;SHT31;13742;49.306;8.636;2024-01-15T03:35:43;-1.59;82.18
25945;SHT31;13742;49.306;8.636;2024-01-15T03:36:43;-1.59;82.17
25945;SHT31;13742;49.306;8.636;2024-01-15T03:37:43;-1.59;82.21
25945;SHT31;13742;49.306;8.636;2024-01-15T03:38:43;-1.62;82.28
25945;SHT31;13742;49.306;8.636;2024-01-15T03:39:43;-1.61;82.34
25945;SHT31;13742;49.306;8.636;2024-01-15T03:40:43;-1.62;82.38
25945;SHT31;13742;49.306;8.636;2024-01-15T03:41:43;-1.61;82.41
25945;SHT31;13742;49.306;8.636;2024-01-15T03:42:43;-1.61;82.38
25945;SHT31;13742;49.306;8.636;2024-01-15T03:43:43;-1.63;82.28
25945;SHT31;13742;49.306;8.636;2024-01-15T03:44:43;-1.59;82.26
25945;SHT31;13742;49.306;8.636;2024-01-15T03:45:43;-1.59;82.40
25945;SHT31;13742;49.306;8.636;2024-01-15T03:46:43;-1.61;82.33
25945;SHT31;13742;49.306;8.636;2024-01-15T03:47:43;-1.61;82.35
25945;SHT31;13742;49.306;8.636;2024-01-15T03:48:43;-1.58;82.35
25945;SHT31;13742;49.306;8.636;2024-01-15T03:49:43;-1.56;82.22
25945;SHT31;13742;49.306;8.636;2024-01-15T03:50:43;-1.55;82.21
25945;SHT31;13742;49.306;8.636;2024-01-15T03:51:44;-1.59;82.24
25945;SHT31;13742;49.306;8.636;2024-01-15T03:52:43;-1.58;82.28
25945;SHT31;13742;49.306;8.636;2024-01-15T03:53:44;-1.59;82.25
25945;SHT31;13742;49.306;8.636;2024-01-15T03:54:43;-1.61;82.32
25945;SHT31;13742;49.306;8.636;2024-01-15T03:55:43;-1.56;82.35
25945;SHT31;13742;49.306;8.636;2024-01-15T03:56:43;-1.58;82.42
25945;SHT31;13742;49.306;8.636;2024-01-15T03:57:43;-1.61;82.29
25945;SHT31;13742;49.306;8.636;2024-01-15T03:58:43;-1.55;82.44
25945;SHT31;13742;49.306;8.636;2024-01-15T03:59:43;-1.56;82.44
25945;SHT31;13742;49.306;8.636;2024-01-15T04:00:43;-1.58;82.42
25945;SHT31;13742;49.306;8.636;2024-01-15T04:01:49;-1.58;82.34
25945;SHT31;13742;49.306;8.636;2024-01-15T04:02:44;-1.58;82.42
25945;SHT31;13742;49.306;8.636;2024-01-15T04:03:43;-1.58;82.36
25945;SHT31;13742;49.306;8.636;2024-01-15T04:04:43;-1.58;82.38
25945;SHT31;13742;49.306;8.636;2024-01-15T04:05:43;-1.58;82.42
25945;SHT31;13742;49.306;8.636;2024-01-15T04:06:43;-1.56;82.44
25945;SHT31;13742;49.306;8.636;2024-01-15T04:07:43;-1.56;82.44
25945;SHT31;13742;49.306;8.636;2024-01-15T04:08:43;-1.56;82.48
25945;SHT31;13742;49.306;8.636;2024-01-15T04:09:43;-1.55;82.45
25945;SHT31;13742;49.306;8.636;2024-01-15T04:10:43;-1.58;82.45
25945;SHT31;13742;49.306;8.636;2024-01-15T04:11:43;-1.56;82.52
25945;SHT31;13742;49.306;8.636;2024-01-15T04:12:43;-1.56;82.54
25945;SHT31;13742;49.306;8.636;2024-01-15T04:13:43;-1.56;82.77
25945;SHT31;13742;49.306;8.636;2024-01-15T04:14:43;-1.52;82.70
25945;SHT31;13742;49.306;8.636;2024-01-15T04:15:43;-1.54;82.76
25945;SHT31;13742;49.306;8.636;2024-01-15T04:16:43;-1.54;82.71
25945;SHT31;13742;49.306;8.636;2024-01-15T04:17:43;-1.54;82.67
25945;SHT31;13742;49.306;8.636;2024-01-15T04:18:43;-1.52;82.61
25945;SHT31;13742;49.306;8.636;2024-01-15T04:19:44;-1.56;82.62
25945;SHT31;13742;49.306;8.636;2024-01-15T04:20:43;-1.55;82.61
25945;SHT31;13742;49.306;8.636;2024-01-15T04:21:43;-1.54;82.67
25945;SHT31;13742;49.306;8.636;2024-01-15T04:22:43;-1.54;82.71
25945;SHT31;13742;49.306;8.636;2024-01-15T04:23:44;-1.49;82.77
25945;SHT31;13742;49.306;8.636;2024-01-15T04:24:43;-1.52;82.64
25945;SHT31;13742;49.306;8.636;2024-01-15T04:25:43;-1.51;82.71
25945;SHT31;13742;49.306;8.636;2024-01-15T04:26:43;-1.54;82.80
25945;SHT31;13742;49.306;8.636;2024-01-15T04:27:43;-1.51;82.78
25945;SHT31;13742;49.306;8.636;2024-01-15T04:28:43;-1.48;82.67
25945;SHT31;13742;49.306;8.636;2024-01-15T04:29:44;-1.52;82.61
25945;SHT31;13742;49.306;8.636;2024-01-15T04:30:43;-1.48;82.61
25945;SHT31;13742;49.306;8.636;2024-01-15T04:31:43;-1.51;82.67
25945;SHT31;13742;49.306;8.636;2024-01-15T04:32:43;-1.51;82.62
25945;SHT31;13742;49.306;8.636;2024-01-15T04:33:43;-1.52;82.70
25945;SHT31;13742;49.306;8.636;2024-01-15T04:34:43;-1.51;82.75
25945;SHT31;13742;49.306;8.636;2024-01-15T04:35:43;-1.49;82.80
25945;SHT31;13742;49.306;8.636;2024-01-15T04:36:43;-1.51;82.79
25945;SHT31;13742;49.306;8.636;2024-01-15T04:37:43;-1.51;82.76
25945;SHT31;13742;49.306;8.636;2024-01-15T04:38:43;-1.51;82.79
25945;SHT31;13742;49.306;8.636;2024-01-15T04:39:43;-1.51;82.83
25945;SHT31;13742;49.306;8.636;2024-01-15T04:40:43;-1.51;82.73
25945;SHT31;13742;49.306;8.636;2024-01-15T04:41:43;-1.51;82.57
25945;SHT31;13742;49.306;8.636;2024-01-15T04:42:45;-1.51;82.75
25945;SHT31;13742;49.306;8.636;2024-01-15T04:43:43;-1.49;82.75
25945;SHT31;13742;49.306;8.636;2024-01-15T04:44:43;-1.49;82.70
25945;SHT31;13742;49.306;8.636;2024-01-15T04:45:43;-1.49;82.81
25945;SHT31;13742;49.306;8.636;2024-01-15T04:46:44;-1.49;82.67
25945;SHT31;13742;49.306;8.636;2024-01-15T04:47:43;-1.49;82.76
25945;SHT31;13742;49.306;8.636;2024-01-15T04:48:43;-1.49;82.79
25945;SHT31;13742;49.306;8.636;2024-01-15T04:49:43;-1.45;82.87
25945;SHT31;13742;49.306;8.636;2024-01-15T04:50:43;-1.47;82.91
25945;SHT31;13742;49.306;8.636;2024-01-15T04:51:43;-1.48;82.93
25945;SHT31;13742;49.306;8.636;2024-01-15T04:52:43;-1.48;82.87
25945;SHT31;13742;49.306;8.636;2024-01-15T04:53:44;-1.45;82.91
25945;SHT31;13742;49.306;8.636;2024-01-15T04:54:43;-1.48;82.96
25945;SHT31;13742;49.306;8.636;2024-01-15T04:55:44;-1.48;82.78
25945;SHT31;13742;49.306;8.636;2024-01-15T04:56:44;-1.47;82.81
25945;SHT31;13742;49.306;8.636;2024-01-15T04:57:44;-1.47;82.85
25945;SHT31;13742;49.306;8.636;2024-01-15T04:58:43;-1.44;82.91
25945;SHT31;13742;49.306;8.636;2024-01-15T04:59:43;-1.45;83.02
25945;SHT31;13742;49.306;8.636;2024-01-15T05:00:43;-1.45;82.96
25945;SHT31;13742;49.306;8.636;2024-01-15T05:01:43;-1.45;83.02
25945;SHT31;13742;49.306;8.636;2024-01-15T05:02:43;-1.44;82.93
25945;SHT31;13742;49.306;8.636;2024-01-15T05:03:43;-1.45;83.02
25945;SHT31;13742;49.306;8.636;2024-01-15T05:04:43;-1.45;83.02
25945;SHT31;13742;49.306;8.636;2024-01-15T05:05:43;-1.45;82.99
25945;SHT31;13742;49.306;8.636;2024-01-15T05:06:43;-1.45;83.10
25945;SHT31;13742;49.306;8.636;2024-01-15T05:07:43;-1.44;83.03
25945;SHT31;13742;49.306;8.636;2024-01-15T05:08:43;-1.42;83.00
25945;SHT31;13742;49.306;8.636;2024-01-15T05:09:43;-1.44;82.93
25945;SHT31;13742;49.306;8.636;2024-01-15T05:10:43;-1.44;82.99
25945;SHT31;13742;49.306;8.636;2024-01-15T05:11:43;-1.44;83.01
25945;SHT31;13742;49.306;8.636;2024-01-15T05:12:43;-1.44;83.01
25945;SHT31;13742;49.306;8.636;2024-01-15T05:13:43;-1.44;83.03
25945;SHT31;13742;49.306;8.636;2024-01-15T05:14:43;-1.42;83.18
25945;SHT31;13742;49.306;8.636;2024-01-15T05:15:43;-1.44;83.13
25945;SHT31;13742;49.306;8.636;2024-01-15T05:16:48;-1.47;83.14
25945;SHT31;13742;49.306;8.636;2024-01-15T05:17:43;-1.45;83.15
25945;SHT31;13742;49.306;8.636;2024-01-15T05:18:43;-1.45;83.12
25945;SHT31;13742;49.306;8.636;2024-01-15T05:19:43;-1.45;83.15
25945;SHT31;13742;49.306;8.636;2024-01-15T05:20:43;-1.47;83.11
25945;SHT31;13742;49.306;8.636;2024-01-15T05:21:43;-1.45;83.06
25945;SHT31;13742;49.306;8.636;2024-01-15T05:22:43;-1.45;83.11
25945;SHT31;13742;49.306;8.636;2024-01-15T05:23:43;-1.45;83.09
25945;SHT31;13742;49.306;8.636;2024-01-15T05:24:43;-1.45;83.13
25945;SHT31;13742;49.306;8.636;2024-01-15T05:25:43;-1.42;83.21
25945;SHT31;13742;49.306;8.636;2024-01-15T05:26:43;-1.44;83.18
25945;SHT31;13742;49.306;8.636;2024-01-15T05:27:43;-1.45;83.12
25945;SHT31;13742;49.306;8.636;2024-01-15T05:28:43;-1.42;83.15
25945;SHT31;13742;49.306;8.636;2024-01-15T05:29:43;-1.44;83.23
25945;SHT31;13742;49.306;8.636;2024-01-15T05:30:43;-1.45;83.28
25945;SHT31;13742;49.306;8.636;2024-01-15T05:31:43;-1.42;83.31
25945;SHT31;13742;49.306;8.636;2024-01-15T05:32:43;-1.45;83.39
25945;SHT31;13742;49.306;8.636;2024-01-15T05:33:43;-1.44;83.37
25945;SHT31;13742;49.306;8.636;2024-01-15T05:34:43;-1.42;83.43
25945;SHT31;13742;49.306;8.636;2024-01-15T05:35:43;-1.41;83.53
25945;SHT31;13742;49.306;8.636;2024-01-15T05:36:43;-1.42;83.56
25945;SHT31;13742;49.306;8.636;2024-01-15T05:37:44;-1.44;83.60
25945;SHT31;13742;49.306;8.636;2024-01-15T05:38:43;-1.44;83.69
25945;SHT31;13742;49.306;8.636;2024-01-15T05:39:43;-1.42;83.80
25945;SHT31;13742;49.306;8.636;2024-01-15T05:40:43;-1.42;83.74
25945;SHT31;13742;49.306;8.636;2024-01-15T05:41:43;-1.42;83.80
25945;SHT31;13742;49.306;8.636;2024-01-15T05:42:43;-1.38;83.78
25945;SHT31;13742;49.306;8.636;2024-01-15T05:43:43;-1.38;83.73
25945;SHT31;13742;49.306;8.636;2024-01-15T05:44:43;-1.42;83.75
25945;SHT31;13742;49.306;8.636;2024-01-15T05:45:43;-1.38;83.69
25945;SHT31;13742;49.306;8.636;2024-01-15T05:46:43;-1.39;83.69
25945;SHT31;13742;49.306;8.636;2024-01-15T05:47:44;-1.38;83.96
25945;SHT31;13742;49.306;8.636;2024-01-15T05:48:44;-1.38;83.82
25945;SHT31;13742;49.306;8.636;2024-01-15T05:49:43;-1.38;83.73
25945;SHT31;13742;49.306;8.636;2024-01-15T05:50:43;-1.41;83.72
25945;SHT31;13742;49.306;8.636;2024-01-15T05:51:43;-1.37;83.77
25945;SHT31;13742;49.306;8.636;2024-01-15T05:52:43;-1.41;83.73
25945;SHT31;13742;49.306;8.636;2024-01-15T05:53:44;-1.38;83.73
25945;SHT31;13742;49.306;8.636;2024-01-15T05:54:43;-1.39;83.79
25945;SHT31;13742;49.306;8.636;2024-01-15T05:55:43;-1.38;83.86
25945;SHT31;13742;49.306;8.636;2024-01-15T05:56:43;-1.38;83.69
25945;SHT31;13742;49.306;8.636;2024-01-15T05:57:43;-1.38;83.72
25945;SHT31;13742;49.306;8.636;2024-01-15T05:58:43;-1.39;83.86
25945;SHT31;13742;49.306;8.636;2024-01-15T05:59:44;-1.34;83.91
25945;SHT31;13742;49.306;8.636;2024-01-15T06:00:43;-1.35;83.79
25945;SHT31;13742;49.306;8.636;2024-01-15T06:01:43;-1.35;83.93
25945;SHT31;13742;49.306;8.636;2024-01-15T06:02:43;-1.35;83.99
25945;SHT31;13742;49.306;8.636;2024-01-15T06:03:43;-1.35;83.98
25945;SHT31;13742;49.306;8.636;2024-01-15T06:04:43;-1.31;84.24
25945;SHT31;13742;49.306;8.636;2024-01-15T06:05:44;-1.30;84.11
25945;SHT31;13742;49.306;8.636;2024-01-15T06:06:43;-1.31;84.02
25945;SHT31;13742;49.306;8.636;2024-01-15T06:07:43;-1.31;83.91
25945;SHT31;13742;49.306;8.636;2024-01-15T06:08:43;-1.30;84.03
25945;SHT31;13742;49.306;8.636;2024-01-15T06:09:43;-1.30;84.05
25945;SHT31;13742;49.306;8.636;2024-01-15T06:10:43;-1.30;84.04
25945;SHT31;13742;49.306;8.636;2024-01-15T06:11:43;-1.31;83.93
25945;SHT31;13742;49.306;8.636;2024-01-15T06:12:43;-1.32;84.03
25945;SHT31;13742;49.306;8.636;2024-01-15T06:13:43;-1.30;83.91
25945;SHT31;13742;49.306;8.636;2024-01-15T06:14:43;-1.31;83.83
25945;SHT31;13742;49.306;8.636;2024-01-15T06:15:43;-1.30;83.83
25945;SHT31;13742;49.306;8.636;2024-01-15T06:16:43;-1.28;83.88
25945;SHT31;13742;49.306;8.636;2024-01-15T06:17:43;-1.27;83.85
25945;SHT31;13742;49.306;8.636;2024-01-15T06:18:43;-1.27;83.81
25945;SHT31;13742;49.306;8.636;2024-01-15T06:19:43;-1.28;83.81